Terminal Aerodrome Forecast
Issued by NWS Omaha/Valley, NE

Home | Current Version | Previous Version | Text Only | Print | Product List | Glossary On
Versions: 1 2 3 4 5 6 7 8 9 10 11 12 13 14 15 16 17 18 19 20
000
FTUS43 KOAX 211120
TAFOFK
TAF
KOFK 211120Z 2112/2212 VRB04KT P6SM SCT250
     FM220300 13004KT P6SM OVC110
     FM220600 13004KT P6SM OVC040 PROB30 2207/2210 -SN OVC015
     FM221000 12005KT P6SM OVC015 PROB30 2210/2212 2SM -SN OVC003=

USA.gov is the U.S. government's official web portal to all federal, state and local government web resources and services.